sensor_id;sensor_type;location;lat;lon;timestamp;P1;durP1;ratioP1;P2;durP2;ratioP2
71771;SDS011;59606;52.138;5.424;2023-02-18T00:02:21;35.67;;;14.80;;
71771;SDS011;59606;52.138;5.424;2023-02-18T00:04:47;40.38;;;12.38;;
71771;SDS011;59606;52.138;5.424;2023-02-18T00:07:14;37.42;;;14.75;;
71771;SDS011;59606;52.138;5.424;2023-02-18T00:09:40;46.83;;;15.65;;
71771;SDS011;59606;52.138;5.424;2023-02-18T00:12:06;35.83;;;14.23;;
71771;SDS011;59606;52.138;5.424;2023-02-18T00:14:33;34.67;;;13.65;;
71771;SDS011;59606;52.138;5.424;2023-02-18T00:16:59;43.15;;;14.07;;
71771;SDS011;59606;52.138;5.424;2023-02-18T00:19:26;49.30;;;15.57;;
71771;SDS011;59606;52.138;5.424;2023-02-18T00:21:52;37.83;;;14.77;;
71771;SDS011;59606;52.138;5.424;2023-02-18T00:24:19;46.70;;;15.50;;
71771;SDS011;59606;52.138;5.424;2023-02-18T00:26:45;49.28;;;15.55;;
71771;SDS011;59606;52.138;5.424;2023-02-18T00:29:17;49.50;;;15.98;;
71771;SDS011;59606;52.138;5.424;2023-02-18T00:31:45;47.47;;;15.75;;
71771;SDS011;59606;52.138;5.424;2023-02-18T00:34:11;41.03;;;15.77;;
71771;SDS011;59606;52.138;5.424;2023-02-18T00:36:39;34.93;;;14.70;;
71771;SDS011;59606;52.138;5.424;2023-02-18T00:39:07;43.20;;;16.17;;
71771;SDS011;59606;52.138;5.424;2023-02-18T00:41:35;47.00;;;15.77;;
71771;SDS011;59606;52.138;5.424;2023-02-18T00:44:02;40.40;;;15.40;;
71771;SDS011;59606;52.138;5.424;2023-02-18T00:46:29;50.17;;;16.60;;
71771;SDS011;59606;52.138;5.424;2023-02-18T00:48:55;48.80;;;16.43;;
71771;SDS011;59606;52.138;5.424;2023-02-18T00:51:22;49.45;;;17.05;;
71771;SDS011;59606;52.138;5.424;2023-02-18T00:53:50;50.65;;;17.40;;
71771;SDS011;59606;52.138;5.424;2023-02-18T00:56:18;42.78;;;16.38;;
71771;SDS011;59606;52.138;5.424;2023-02-18T00:58:44;46.50;;;16.05;;
71771;SDS011;59606;52.138;5.424;2023-02-18T01:01:11;45.67;;;15.07;;
71771;SDS011;59606;52.138;5.424;2023-02-18T01:03:39;46.95;;;15.88;;
71771;SDS011;59606;52.138;5.424;2023-02-18T01:06:06;43.50;;;15.48;;
71771;SDS011;59606;52.138;5.424;2023-02-18T01:08:34;50.25;;;16.02;;
71771;SDS011;59606;52.138;5.424;2023-02-18T01:11:02;35.75;;;13.98;;
71771;SDS011;59606;52.138;5.424;2023-02-18T01:13:29;48.20;;;14.17;;
71771;SDS011;59606;52.138;5.424;2023-02-18T01:15:56;53.10;;;14.10;;
71771;SDS011;59606;52.138;5.424;2023-02-18T01:18:23;49.20;;;14.77;;
71771;SDS011;59606;52.138;5.424;2023-02-18T01:20:51;43.28;;;13.15;;
71771;SDS011;59606;52.138;5.424;2023-02-18T01:23:17;45.25;;;13.35;;
71771;SDS011;59606;52.138;5.424;2023-02-18T01:25:45;35.10;;;11.63;;
71771;SDS011;59606;52.138;5.424;2023-02-18T01:28:12;44.30;;;13.07;;
71771;SDS011;59606;52.138;5.424;2023-02-18T01:30:39;36.47;;;12.02;;
71771;SDS011;59606;52.138;5.424;2023-02-18T01:33:07;36.28;;;11.30;;
71771;SDS011;59606;52.138;5.424;2023-02-18T01:35:36;32.90;;;11.15;;
71771;SDS011;59606;52.138;5.424;2023-02-18T01:38:04;36.20;;;11.50;;
71771;SDS011;59606;52.138;5.424;2023-02-18T01:40:30;29.30;;;10.43;;
71771;SDS011;59606;52.138;5.424;2023-02-18T01:42:57;33.08;;;11.55;;
71771;SDS011;59606;52.138;5.424;2023-02-18T01:45:48;30.38;;;10.63;;
71771;SDS011;59606;52.138;5.424;2023-02-18T01:48:17;31.45;;;9.90;;
71771;SDS011;59606;52.138;5.424;2023-02-18T01:50:51;30.30;;;10.40;;
71771;SDS011;59606;52.138;5.424;2023-02-18T01:53:26;31.38;;;11.27;;
71771;SDS011;59606;52.138;5.424;2023-02-18T01:55:59;35.67;;;10.40;;
71771;SDS011;59606;52.138;5.424;2023-02-18T01:58:28;30.48;;;10.48;;
71771;SDS011;59606;52.138;5.424;2023-02-18T02:00:55;29.48;;;10.68;;
71771;SDS011;59606;52.138;5.424;2023-02-18T02:03:22;38.30;;;11.37;;
71771;SDS011;59606;52.138;5.424;2023-02-18T02:05:48;27.13;;;11.15;;
71771;SDS011;59606;52.138;5.424;2023-02-18T02:08:15;31.13;;;9.93;;
71771;SDS011;59606;52.138;5.424;2023-02-18T02:11:06;32.33;;;11.10;;
71771;SDS011;59606;52.138;5.424;2023-02-18T02:13:48;31.40;;;11.52;;
71771;SDS011;59606;52.138;5.424;2023-02-18T02:16:38;34.87;;;11.80;;
71771;SDS011;59606;52.138;5.424;2023-02-18T02:27:53;38.50;;;12.57;;
71771;SDS011;59606;52.138;5.424;2023-02-18T02:30:57;33.17;;;11.87;;
71771;SDS011;59606;52.138;5.424;2023-02-18T02:36:46;42.97;;;13.10;;
71771;SDS011;59606;52.138;5.424;2023-02-18T02:47:34;47.55;;;14.45;;
71771;SDS011;59606;52.138;5.424;2023-02-18T02:52:46;48.13;;;13.85;;
71771;SDS011;59606;52.138;5.424;2023-02-18T02:55:17;50.60;;;14.85;;
71771;SDS011;59606;52.138;5.424;2023-02-18T02:57:45;43.00;;;13.23;;
71771;SDS011;59606;52.138;5.424;2023-02-18T03:00:17;36.88;;;12.25;;
71771;SDS011;59606;52.138;5.424;2023-02-18T03:11:12;41.93;;;13.67;;
71771;SDS011;59606;52.138;5.424;2023-02-18T03:19:21;38.58;;;13.43;;
71771;SDS011;59606;52.138;5.424;2023-02-18T03:21:56;45.78;;;13.45;;
71771;SDS011;59606;52.138;5.424;2023-02-18T03:24:29;38.47;;;11.17;;
71771;SDS011;59606;52.138;5.424;2023-02-18T03:27:03;41.60;;;12.05;;
71771;SDS011;59606;52.138;5.424;2023-02-18T03:29:33;33.83;;;10.65;;
71771;SDS011;59606;52.138;5.424;2023-02-18T03:32:02;35.95;;;12.07;;
71771;SDS011;59606;52.138;5.424;2023-02-18T03:34:37;33.75;;;10.93;;
71771;SDS011;59606;52.138;5.424;2023-02-18T03:37:06;37.47;;;12.57;;
71771;SDS011;59606;52.138;5.424;2023-02-18T03:39:35;36.13;;;10.98;;
71771;SDS011;59606;52.138;5.424;2023-02-18T03:42:04;38.08;;;12.30;;
71771;SDS011;59606;52.138;5.424;2023-02-18T03:44:32;34.53;;;10.02;;
71771;SDS011;59606;52.138;5.424;2023-02-18T03:46:58;28.73;;;9.70;;
71771;SDS011;59606;52.138;5.424;2023-02-18T03:49:25;32.33;;;9.17;;
71771;SDS011;59606;52.138;5.424;2023-02-18T03:51:51;29.70;;;9.15;;
71771;SDS011;59606;52.138;5.424;2023-02-18T03:54:18;23.02;;;8.02;;
71771;SDS011;59606;52.138;5.424;2023-02-18T03:56:45;25.05;;;7.70;;
71771;SDS011;59606;52.138;5.424;2023-02-18T03:59:11;21.65;;;6.40;;
71771;SDS011;59606;52.138;5.424;2023-02-18T04:01:38;18.60;;;6.03;;
71771;SDS011;59606;52.138;5.424;2023-02-18T04:04:05;15.75;;;5.53;;
71771;SDS011;59606;52.138;5.424;2023-02-18T04:06:32;15.80;;;4.82;;
71771;SDS011;59606;52.138;5.424;2023-02-18T04:08:59;11.25;;;3.47;;
71771;SDS011;59606;52.138;5.424;2023-02-18T04:11:25;12.23;;;3.83;;
71771;SDS011;59606;52.138;5.424;2023-02-18T04:13:52;9.17;;;3.77;;
71771;SDS011;59606;52.138;5.424;2023-02-18T04:16:18;12.60;;;3.60;;
71771;SDS011;59606;52.138;5.424;2023-02-18T04:18:45;8.93;;;3.22;;
71771;SDS011;59606;52.138;5.424;2023-02-18T04:21:11;8.48;;;2.92;;
71771;SDS011;59606;52.138;5.424;2023-02-18T04:23:37;10.55;;;3.00;;
71771;SDS011;59606;52.138;5.424;2023-02-18T04:26:04;9.23;;;3.10;;
71771;SDS011;59606;52.138;5.424;2023-02-18T04:28:30;7.95;;;2.67;;
71771;SDS011;59606;52.138;5.424;2023-02-18T04:30:57;8.38;;;2.55;;
71771;SDS011;59606;52.138;5.424;2023-02-18T04:33:23;6.68;;;2.42;;
71771;SDS011;59606;52.138;5.424;2023-02-18T04:35:50;6.78;;;2.70;;
71771;SDS011;59606;52.138;5.424;2023-02-18T04:38:17;8.63;;;2.63;;
71771;SDS011;59606;52.138;5.424;2023-02-18T04:40:43;7.65;;;2.78;;
71771;SDS011;59606;52.138;5.424;2023-02-18T04:43:10;7.57;;;3.10;;
71771;SDS011;59606;52.138;5.424;2023-02-18T04:45:36;8.68;;;3.08;;
71771;SDS011;59606;52.138;5.424;2023-02-18T04:48:03;8.75;;;2.83;;
71771;SDS011;59606;52.138;5.424;2023-02-18T04:50:29;8.57;;;3.30;;
71771;SDS011;59606;52.138;5.424;2023-02-18T04:52:56;8.38;;;2.78;;
71771;SDS011;59606;52.138;5.424;2023-02-18T04:55:22;9.00;;;2.72;;
71771;SDS011;59606;52.138;5.424;2023-02-18T04:57:49;11.75;;;3.72;;
71771;SDS011;59606;52.138;5.424;2023-02-18T05:00:16;8.98;;;3.30;;
71771;SDS011;59606;52.138;5.424;2023-02-18T05:02:44;9.43;;;4.13;;
71771;SDS011;59606;52.138;5.424;2023-02-18T05:05:11;10.93;;;3.53;;
71771;SDS011;59606;52.138;5.424;2023-02-18T05:07:38;10.05;;;3.92;;
71771;SDS011;59606;52.138;5.424;2023-02-18T05:10:08;9.27;;;3.95;;
71771;SDS011;59606;52.138;5.424;2023-02-18T05:12:36;9.70;;;3.75;;
71771;SDS011;59606;52.138;5.424;2023-02-18T05:15:03;11.10;;;4.33;;
71771;SDS011;59606;52.138;5.424;2023-02-18T05:17:29;11.15;;;4.18;;
71771;SDS011;59606;52.138;5.424;2023-02-18T05:19:56;11.60;;;4.22;;
71771;SDS011;59606;52.138;5.424;2023-02-18T05:22:22;9.30;;;4.03;;
71771;SDS011;59606;52.138;5.424;2023-02-18T05:24:49;8.40;;;3.75;;
71771;SDS011;59606;52.138;5.424;2023-02-18T05:27:15;10.00;;;4.27;;
71771;SDS011;59606;52.138;5.424;2023-02-18T05:29:42;9.02;;;4.13;;
71771;SDS011;59606;52.138;5.424;2023-02-18T05:32:08;11.35;;;4.82;;
71771;SDS011;59606;52.138;5.424;2023-02-18T05:34:35;10.98;;;4.68;;
71771;SDS011;59606;52.138;5.424;2023-02-18T05:37:02;9.63;;;4.10;;
71771;SDS011;59606;52.138;5.424;2023-02-18T05:39:28;10.63;;;4.10;;
71771;SDS011;59606;52.138;5.424;2023-02-18T05:41:55;9.65;;;4.55;;
71771;SDS011;59606;52.138;5.424;2023-02-18T05:44:21;11.45;;;4.57;;
71771;SDS011;59606;52.138;5.424;2023-02-18T05:47:01;10.38;;;4.50;;
71771;SDS011;59606;52.138;5.424;2023-02-18T05:49:30;13.18;;;5.35;;
71771;SDS011;59606;52.138;5.424;2023-02-18T05:51:58;14.70;;;5.60;;
71771;SDS011;59606;52.138;5.424;2023-02-18T05:54:25;18.38;;;7.70;;
71771;SDS011;59606;52.138;5.424;2023-02-18T05:56:52;19.27;;;7.68;;
71771;SDS011;59606;52.138;5.424;2023-02-18T05:59:19;20.25;;;7.78;;
71771;SDS011;59606;52.138;5.424;2023-02-18T06:01:46;21.65;;;8.45;;
71771;SDS011;59606;52.138;5.424;2023-02-18T06:04:13;20.03;;;9.67;;
71771;SDS011;59606;52.138;5.424;2023-02-18T06:06:40;21.58;;;9.27;;
71771;SDS011;59606;52.138;5.424;2023-02-18T06:09:07;22.85;;;9.82;;
71771;SDS011;59606;52.138;5.424;2023-02-18T06:11:34;23.00;;;9.00;;
71771;SDS011;59606;52.138;5.424;2023-02-18T06:14:01;19.77;;;8.30;;
71771;SDS011;59606;52.138;5.424;2023-02-18T06:16:28;19.73;;;8.30;;
71771;SDS011;59606;52.138;5.424;2023-02-18T06:18:55;22.30;;;9.88;;
71771;SDS011;59606;52.138;5.424;2023-02-18T06:21:22;20.00;;;9.43;;
71771;SDS011;59606;52.138;5.424;2023-02-18T06:23:48;20.60;;;9.15;;
71771;SDS011;59606;52.138;5.424;2023-02-18T06:26:14;21.83;;;9.88;;
71771;SDS011;59606;52.138;5.424;2023-02-18T06:28:41;19.43;;;9.37;;
71771;SDS011;59606;52.138;5.424;2023-02-18T06:31:08;19.80;;;9.23;;
71771;SDS011;59606;52.138;5.424;2023-02-18T06:33:34;20.13;;;9.13;;
71771;SDS011;59606;52.138;5.424;2023-02-18T06:36:02;22.67;;;9.77;;
71771;SDS011;59606;52.138;5.424;2023-02-18T06:38:34;21.15;;;9.23;;
71771;SDS011;59606;52.138;5.424;2023-02-18T06:41:01;19.30;;;8.87;;
71771;SDS011;59606;52.138;5.424;2023-02-18T06:43:28;22.80;;;9.30;;
71771;SDS011;59606;52.138;5.424;2023-02-18T06:45:54;23.08;;;8.73;;
71771;SDS011;59606;52.138;5.424;2023-02-18T06:48:22;20.17;;;8.23;;
71771;SDS011;59606;52.138;5.424;2023-02-18T06:50:48;18.27;;;7.85;;
71771;SDS011;59606;52.138;5.424;2023-02-18T06:53:15;18.17;;;7.27;;
71771;SDS011;59606;52.138;5.424;2023-02-18T06:55:43;17.25;;;6.55;;
71771;SDS011;59606;52.138;5.424;2023-02-18T06:58:10;16.85;;;6.57;;
71771;SDS011;59606;52.138;5.424;2023-02-18T07:00:37;17.67;;;7.82;;
71771;SDS011;59606;52.138;5.424;2023-02-18T07:03:05;22.58;;;7.82;;
71771;SDS011;59606;52.138;5.424;2023-02-18T07:05:32;20.97;;;7.43;;
71771;SDS011;59606;52.138;5.424;2023-02-18T07:07:58;23.20;;;8.23;;
71771;SDS011;59606;52.138;5.424;2023-02-18T07:10:25;20.33;;;7.53;;
71771;SDS011;59606;52.138;5.424;2023-02-18T07:12:52;16.17;;;7.40;;
71771;SDS011;59606;52.138;5.424;2023-02-18T07:15:18;21.45;;;8.82;;
71771;SDS011;59606;52.138;5.424;2023-02-18T07:17:49;24.53;;;9.23;;
71771;SDS011;59606;52.138;5.424;2023-02-18T07:20:17;27.50;;;9.15;;
71771;SDS011;59606;52.138;5.424;2023-02-18T07:22:44;25.92;;;9.57;;
71771;SDS011;59606;52.138;5.424;2023-02-18T07:25:11;23.73;;;9.48;;
71771;SDS011;59606;52.138;5.424;2023-02-18T07:27:38;21.55;;;8.93;;
71771;SDS011;59606;52.138;5.424;2023-02-18T07:30:05;22.10;;;8.93;;
71771;SDS011;59606;52.138;5.424;2023-02-18T07:32:32;23.77;;;9.35;;
71771;SDS011;59606;52.138;5.424;2023-02-18T07:34:59;24.52;;;11.25;;
71771;SDS011;59606;52.138;5.424;2023-02-18T07:37:25;23.40;;;9.27;;
71771;SDS011;59606;52.138;5.424;2023-02-18T07:39:52;24.15;;;10.13;;
71771;SDS011;59606;52.138;5.424;2023-02-18T07:42:18;19.73;;;8.50;;
71771;SDS011;59606;52.138;5.424;2023-02-18T07:44:45;21.58;;;8.63;;
71771;SDS011;59606;52.138;5.424;2023-02-18T07:47:12;21.30;;;9.60;;
71771;SDS011;59606;52.138;5.424;2023-02-18T07:49:40;20.55;;;8.98;;
71771;SDS011;59606;52.138;5.424;2023-02-18T07:52:06;22.05;;;8.52;;
71771;SDS011;59606;52.138;5.424;2023-02-18T07:54:33;19.80;;;8.33;;
71771;SDS011;59606;52.138;5.424;2023-02-18T07:57:00;22.98;;;8.15;;
71771;SDS011;59606;52.138;5.424;2023-02-18T07:59:26;15.27;;;7.60;;
71771;SDS011;59606;52.138;5.424;2023-02-18T08:01:53;19.00;;;6.60;;
71771;SDS011;59606;52.138;5.424;2023-02-18T08:04:19;17.02;;;6.18;;
71771;SDS011;59606;52.138;5.424;2023-02-18T08:06:46;18.00;;;6.30;;
71771;SDS011;59606;52.138;5.424;2023-02-18T08:09:15;25.38;;;7.07;;
71771;SDS011;59606;52.138;5.424;2023-02-18T08:11:42;23.05;;;6.32;;
71771;SDS011;59606;52.138;5.424;2023-02-18T08:14:09;18.63;;;4.85;;
71771;SDS011;59606;52.138;5.424;2023-02-18T08:16:36;22.02;;;5.45;;
71771;SDS011;59606;52.138;5.424;2023-02-18T08:19:03;14.17;;;4.63;;
71771;SDS011;59606;52.138;5.424;2023-02-18T08:21:29;16.77;;;3.90;;
71771;SDS011;59606;52.138;5.424;2023-02-18T08:23:57;15.82;;;4.20;;
71771;SDS011;59606;52.138;5.424;2023-02-18T08:26:24;14.40;;;3.25;;
71771;SDS011;59606;52.138;5.424;2023-02-18T08:28:51;26.50;;;4.65;;
71771;SDS011;59606;52.138;5.424;2023-02-18T08:31:22;16.23;;;3.40;;
71771;SDS011;59606;52.138;5.424;2023-02-18T08:33:51;15.35;;;3.65;;
71771;SDS011;59606;52.138;5.424;2023-02-18T08:36:19;10.98;;;2.85;;
71771;SDS011;59606;52.138;5.424;2023-02-18T08:38:46;11.50;;;3.10;;
71771;SDS011;59606;52.138;5.424;2023-02-18T08:41:13;25.73;;;3.45;;
71771;SDS011;59606;52.138;5.424;2023-02-18T08:43:41;9.67;;;2.53;;
71771;SDS011;59606;52.138;5.424;2023-02-18T08:46:08;14.25;;;2.67;;
71771;SDS011;59606;52.138;5.424;2023-02-18T08:48:42;16.98;;;3.13;;
71771;SDS011;59606;52.138;5.424;2023-02-18T08:51:13;14.88;;;2.67;;
71771;SDS011;59606;52.138;5.424;2023-02-18T08:53:42;15.65;;;2.40;;
71771;SDS011;59606;52.138;5.424;2023-02-18T08:56:10;11.73;;;2.93;;
71771;SDS011;59606;52.138;5.424;2023-02-18T08:58:36;15.50;;;2.00;;
71771;SDS011;59606;52.138;5.424;2023-02-18T09:01:04;15.90;;;2.47;;
71771;SDS011;59606;52.138;5.424;2023-02-18T09:03:32;13.13;;;2.22;;
71771;SDS011;59606;52.138;5.424;2023-02-18T09:06:00;13.48;;;2.05;;
71771;SDS011;59606;52.138;5.424;2023-02-18T09:08:27;15.50;;;2.47;;
71771;SDS011;59606;52.138;5.424;2023-02-18T09:10:57;16.75;;;2.45;;
71771;SDS011;59606;52.138;5.424;2023-02-18T09:13:26;11.25;;;1.83;;
71771;SDS011;59606;52.138;5.424;2023-02-18T09:16:00;12.77;;;2.65;;
71771;SDS011;59606;52.138;5.424;2023-02-18T09:18:51;16.27;;;2.42;;
71771;SDS011;59606;52.138;5.424;2023-02-18T09:21:17;10.90;;;2.10;;
71771;SDS011;59606;52.138;5.424;2023-02-18T09:23:45;9.27;;;1.83;;
71771;SDS011;59606;52.138;5.424;2023-02-18T09:26:13;15.20;;;2.10;;
71771;SDS011;59606;52.138;5.424;2023-02-18T09:28:41;9.48;;;2.00;;
71771;SDS011;59606;52.138;5.424;2023-02-18T09:31:16;13.80;;;2.58;;
71771;SDS011;59606;52.138;5.424;2023-02-18T09:33:45;9.77;;;1.70;;
71771;SDS011;59606;52.138;5.424;2023-02-18T09:36:14;8.48;;;2.08;;
71771;SDS011;59606;52.138;5.424;2023-02-18T09:38:40;14.00;;;1.48;;
71771;SDS011;59606;52.138;5.424;2023-02-18T09:41:31;10.07;;;2.05;;
71771;SDS011;59606;52.138;5.424;2023-02-18T09:43:59;8.43;;;1.70;;
71771;SDS011;59606;52.138;5.424;2023-02-18T09:49:22;11.60;;;1.92;;
71771;SDS011;59606;52.138;5.424;2023-02-18T09:51:52;11.18;;;2.15;;
71771;SDS011;59606;52.138;5.424;2023-02-18T09:54:20;15.95;;;2.40;;
71771;SDS011;59606;52.138;5.424;2023-02-18T09:56:47;10.60;;;1.75;;
71771;SDS011;59606;52.138;5.424;2023-02-18T09:59:16;21.30;;;2.10;;
71771;SDS011;59606;52.138;5.424;2023-02-18T10:01:45;3.80;;;1.33;;
71771;SDS011;59606;52.138;5.424;2023-02-18T10:04:15;11.90;;;2.40;;
71771;SDS011;59606;52.138;5.424;2023-02-18T10:06:46;14.15;;;2.05;;
71771;SDS011;59606;52.138;5.424;2023-02-18T10:09:17;7.15;;;1.50;;
71771;SDS011;59606;52.138;5.424;2023-02-18T10:11:57;7.80;;;2.40;;
71771;SDS011;59606;52.138;5.424;2023-02-18T10:14:33;14.02;;;2.05;;
71771;SDS011;59606;52.138;5.424;2023-02-18T10:17:01;12.18;;;2.35;;
71771;SDS011;59606;52.138;5.424;2023-02-18T10:19:31;14.27;;;2.13;;
71771;SDS011;59606;52.138;5.424;2023-02-18T10:22:01;19.27;;;2.55;;
71771;SDS011;59606;52.138;5.424;2023-02-18T10:27:02;18.10;;;2.40;;
71771;SDS011;59606;52.138;5.424;2023-02-18T10:29:31;11.20;;;2.53;;
71771;SDS011;59606;52.138;5.424;2023-02-18T10:32:06;12.13;;;2.40;;
71771;SDS011;59606;52.138;5.424;2023-02-18T10:38:01;14.60;;;2.43;;
71771;SDS011;59606;52.138;5.424;2023-02-18T10:51:31;14.27;;;2.73;;
71771;SDS011;59606;52.138;5.424;2023-02-18T10:54:00;12.85;;;2.55;;
71771;SDS011;59606;52.138;5.424;2023-02-18T10:56:47;12.48;;;3.00;;
71771;SDS011;59606;52.138;5.424;2023-02-18T11:01:52;13.13;;;2.50;;
71771;SDS011;59606;52.138;5.424;2023-02-18T11:04:22;14.23;;;2.63;;
71771;SDS011;59606;52.138;5.424;2023-02-18T11:06:52;10.00;;;2.20;;
71771;SDS011;59606;52.138;5.424;2023-02-18T11:12:05;16.50;;;2.38;;
71771;SDS011;59606;52.138;5.424;2023-02-18T11:14:43;10.82;;;2.35;;
71771;SDS011;59606;52.138;5.424;2023-02-18T11:17:16;19.40;;;2.00;;
71771;SDS011;59606;52.138;5.424;2023-02-18T11:19:56;13.23;;;2.00;;
71771;SDS011;59606;52.138;5.424;2023-02-18T11:22:29;11.68;;;1.85;;
71771;SDS011;59606;52.138;5.424;2023-02-18T11:25:00;11.80;;;2.28;;
71771;SDS011;59606;52.138;5.424;2023-02-18T11:27:44;14.00;;;1.70;;
71771;SDS011;59606;52.138;5.424;2023-02-18T11:30:20;10.27;;;2.27;;
71771;SDS011;59606;52.138;5.424;2023-02-18T11:32:52;18.42;;;2.03;;
71771;SDS011;59606;52.138;5.424;2023-02-18T11:35:26;9.63;;;1.77;;
71771;SDS011;59606;52.138;5.424;2023-02-18T11:37:55;13.73;;;2.58;;
71771;SDS011;59606;52.138;5.424;2023-02-18T11:40:24;10.65;;;2.05;;
71771;SDS011;59606;52.138;5.424;2023-02-18T11:43:02;16.43;;;2.30;;
71771;SDS011;59606;52.138;5.424;2023-02-18T11:45:31;11.50;;;1.73;;
71771;SDS011;59606;52.138;5.424;2023-02-18T11:48:00;17.15;;;2.38;;
71771;SDS011;59606;52.138;5.424;2023-02-18T11:50:32;12.18;;;2.10;;
71771;SDS011;59606;52.138;5.424;2023-02-18T11:52:59;10.98;;;1.88;;
71771;SDS011;59606;52.138;5.424;2023-02-18T11:55:26;12.70;;;2.43;;
71771;SDS011;59606;52.138;5.424;2023-02-18T11:57:56;8.48;;;1.40;;
71771;SDS011;59606;52.138;5.424;2023-02-18T12:03:04;7.03;;;1.65;;
71771;SDS011;59606;52.138;5.424;2023-02-18T12:05:40;14.27;;;1.85;;
71771;SDS011;59606;52.138;5.424;2023-02-18T12:10:51;11.65;;;1.67;;
71771;SDS011;59606;52.138;5.424;2023-02-18T12:13:31;9.25;;;1.90;;
71771;SDS011;59606;52.138;5.424;2023-02-18T12:16:06;13.77;;;2.20;;
71771;SDS011;59606;52.138;5.424;2023-02-18T12:21:35;11.73;;;2.47;;
71771;SDS011;59606;52.138;5.424;2023-02-18T12:32:46;10.25;;;1.90;;
71771;SDS011;59606;52.138;5.424;2023-02-18T12:35:34;11.10;;;1.70;;
71771;SDS011;59606;52.138;5.424;2023-02-18T12:43:32;10.93;;;1.85;;
71771;SDS011;59606;52.138;5.424;2023-02-18T12:49:01;8.73;;;1.77;;
71771;SDS011;59606;52.138;5.424;2023-02-18T12:51:37;9.20;;;2.60;;
71771;SDS011;59606;52.138;5.424;2023-02-18T13:05:56;8.75;;;1.23;;
71771;SDS011;59606;52.138;5.424;2023-02-18T13:08:50;6.15;;;1.20;;
71771;SDS011;59606;52.138;5.424;2023-02-18T13:14:24;6.13;;;1.15;;
71771;SDS011;59606;52.138;5.424;2023-02-18T13:16:55;7.50;;;1.17;;
71771;SDS011;59606;52.138;5.424;2023-02-18T13:22:01;6.18;;;1.05;;
71771;SDS011;59606;52.138;5.424;2023-02-18T13:24:34;8.10;;;1.02;;
71771;SDS011;59606;52.138;5.424;2023-02-18T13:27:52;6.40;;;1.38;;
71771;SDS011;59606;52.138;5.424;2023-02-18T13:30:23;6.97;;;1.53;;
71771;SDS011;59606;52.138;5.424;2023-02-18T13:33:02;11.55;;;1.98;;
71771;SDS011;59606;52.138;5.424;2023-02-18T13:35:35;6.18;;;1.52;;
71771;SDS011;59606;52.138;5.424;2023-02-18T13:40:45;10.23;;;1.05;;
71771;SDS011;59606;52.138;5.424;2023-02-18T13:43:29;10.00;;;1.67;;
71771;SDS011;59606;52.138;5.424;2023-02-18T13:46:04;11.20;;;1.40;;
71771;SDS011;59606;52.138;5.424;2023-02-18T13:48:43;8.23;;;1.17;;
71771;SDS011;59606;52.138;5.424;2023-02-18T13:51:28;5.75;;;1.20;;
71771;SDS011;59606;52.138;5.424;2023-02-18T13:53:58;7.80;;;1.15;;
71771;SDS011;59606;52.138;5.424;2023-02-18T13:56:26;5.47;;;1.00;;
71771;SDS011;59606;52.138;5.424;2023-02-18T13:58:58;3.67;;;1.17;;
71771;SDS011;59606;52.138;5.424;2023-02-18T14:09:47;3.93;;;1.00;;
71771;SDS011;59606;52.138;5.424;2023-02-18T14:12:24;2.72;;;0.88;;
71771;SDS011;59606;52.138;5.424;2023-02-18T14:14:51;5.28;;;1.05;;
71771;SDS011;59606;52.138;5.424;2023-02-18T14:22:33;4.13;;;1.43;;
71771;SDS011;59606;52.138;5.424;2023-02-18T14:27:37;6.30;;;1.60;;
71771;SDS011;59606;52.138;5.424;2023-02-18T14:30:29;4.72;;;1.20;;
71771;SDS011;59606;52.138;5.424;2023-02-18T14:33:01;7.30;;;1.40;;
71771;SDS011;59606;52.138;5.424;2023-02-18T14:36:30;4.50;;;1.30;;
71771;SDS011;59606;52.138;5.424;2023-02-18T14:41:49;4.85;;;0.95;;
71771;SDS011;59606;52.138;5.424;2023-02-18T14:49:44;9.00;;;1.00;;
71771;SDS011;59606;52.138;5.424;2023-02-18T14:53:02;8.23;;;1.45;;
71771;SDS011;59606;52.138;5.424;2023-02-18T14:55:05;9.07;;;1.40;;
71771;SDS011;59606;52.138;5.424;2023-02-18T14:57:41;5.68;;;1.00;;
71771;SDS011;59606;52.138;5.424;2023-02-18T15:00:25;5.72;;;1.20;;
71771;SDS011;59606;52.138;5.424;2023-02-18T15:02:58;4.57;;;1.53;;
71771;SDS011;59606;52.138;5.424;2023-02-18T15:05:27;6.10;;;1.85;;
71771;SDS011;59606;52.138;5.424;2023-02-18T15:08:00;6.10;;;1.48;;
71771;SDS011;59606;52.138;5.424;2023-02-18T15:10:38;8.63;;;2.60;;
71771;SDS011;59606;52.138;5.424;2023-02-18T15:13:07;4.97;;;1.20;;
71771;SDS011;59606;52.138;5.424;2023-02-18T15:15:39;5.37;;;1.33;;
71771;SDS011;59606;52.138;5.424;2023-02-18T15:18:26;4.90;;;1.27;;
71771;SDS011;59606;52.138;5.424;2023-02-18T15:20:58;6.90;;;1.75;;
71771;SDS011;59606;52.138;5.424;2023-02-18T15:23:26;7.47;;;1.30;;
71771;SDS011;59606;52.138;5.424;2023-02-18T15:25:54;5.78;;;1.33;;
71771;SDS011;59606;52.138;5.424;2023-02-18T15:28:25;8.83;;;1.40;;
71771;SDS011;59606;52.138;5.424;2023-02-18T15:31:00;5.45;;;1.33;;
71771;SDS011;59606;52.138;5.424;2023-02-18T15:33:28;5.40;;;1.98;;
71771;SDS011;59606;52.138;5.424;2023-02-18T15:36:02;5.90;;;1.15;;
71771;SDS011;59606;52.138;5.424;2023-02-18T15:38:30;5.53;;;1.60;;
71771;SDS011;59606;52.138;5.424;2023-02-18T15:40:57;10.27;;;1.43;;
71771;SDS011;59606;52.138;5.424;2023-02-18T15:43:24;6.03;;;1.27;;
71771;SDS011;59606;52.138;5.424;2023-02-18T15:45:55;6.05;;;1.10;;
71771;SDS011;59606;52.138;5.424;2023-02-18T15:50:55;3.47;;;1.30;;
71771;SDS011;59606;52.138;5.424;2023-02-18T15:53:33;7.40;;;1.33;;
71771;SDS011;59606;52.138;5.424;2023-02-18T15:56:06;4.38;;;1.35;;
71771;SDS011;59606;52.138;5.424;2023-02-18T15:58:35;6.40;;;1.40;;
71771;SDS011;59606;52.138;5.424;2023-02-18T16:01:03;6.50;;;1.42;;
71771;SDS011;59606;52.138;5.424;2023-02-18T16:09:10;9.25;;;1.50;;
71771;SDS011;59606;52.138;5.424;2023-02-18T16:11:43;11.27;;;1.77;;
71771;SDS011;59606;52.138;5.424;2023-02-18T16:14:28;10.18;;;2.22;;
71771;SDS011;59606;52.138;5.424;2023-02-18T16:17:10;10.90;;;2.65;;
71771;SDS011;59606;52.138;5.424;2023-02-18T16:27:53;8.50;;;2.00;;
71771;SDS011;59606;52.138;5.424;2023-02-18T16:30:23;8.38;;;1.83;;
71771;SDS011;59606;52.138;5.424;2023-02-18T16:32:51;10.10;;;2.40;;
71771;SDS011;59606;52.138;5.424;2023-02-18T16:35:20;12.68;;;2.55;;
71771;SDS011;59606;52.138;5.424;2023-02-18T16:37:48;10.27;;;2.70;;
71771;SDS011;59606;52.138;5.424;2023-02-18T16:42:59;18.98;;;2.97;;
71771;SDS011;59606;52.138;5.424;2023-02-18T16:45:33;9.80;;;2.83;;
71771;SDS011;59606;52.138;5.424;2023-02-18T16:48:02;13.45;;;2.38;;
71771;SDS011;59606;52.138;5.424;2023-02-18T16:50:30;13.57;;;3.20;;
71771;SDS011;59606;52.138;5.424;2023-02-18T16:52:58;12.18;;;2.47;;
71771;SDS011;59606;52.138;5.424;2023-02-18T16:55:26;11.93;;;2.55;;
71771;SDS011;59606;52.138;5.424;2023-02-18T16:57:55;13.80;;;3.27;;
71771;SDS011;59606;52.138;5.424;2023-02-18T17:00:22;14.35;;;2.97;;
71771;SDS011;59606;52.138;5.424;2023-02-18T17:02:50;15.80;;;2.80;;
71771;SDS011;59606;52.138;5.424;2023-02-18T17:05:21;12.25;;;2.63;;
71771;SDS011;59606;52.138;5.424;2023-02-18T17:08:11;11.82;;;2.47;;
71771;SDS011;59606;52.138;5.424;2023-02-18T17:10:48;12.43;;;2.97;;
71771;SDS011;59606;52.138;5.424;2023-02-18T17:13:17;10.18;;;2.65;;
71771;SDS011;59606;52.138;5.424;2023-02-18T17:15:46;18.55;;;4.07;;
71771;SDS011;59606;52.138;5.424;2023-02-18T17:18:15;6.57;;;2.88;;
71771;SDS011;59606;52.138;5.424;2023-02-18T17:20:42;16.45;;;3.60;;
71771;SDS011;59606;52.138;5.424;2023-02-18T17:23:12;12.53;;;3.47;;
71771;SDS011;59606;52.138;5.424;2023-02-18T17:25:40;10.20;;;3.10;;